Time;durP1;ratioP1;P1;durP2;ratioP2;P2;SDS_P1;SDS_P2;PMS_P1;PMS_P2;Temp;Humidity;BMP_temperature;BMP_pressure;BME280_temperature;BME280_humidity;BME280_pressure;Samples;Min_cycle;Max_cycle;Signal;HPM_P1;HPM_P2
2021/07/07 00:01:53;;;;;;;0.50;0.33;;;15.20;99.90;;;;;;5030349;28;20459;-82
2021/07/07 00:04:19;;;;;;;0.50;0.40;;;15.20;99.90;;;;;;5029225;28;20430;-83
2021/07/07 00:06:48;;;;;;;0.50;0.40;;;15.20;99.90;;;;;;5037785;28;20934;-83
2021/07/07 00:09:14;;;;;;;0.50;0.40;;;15.10;99.90;;;;;;5036924;28;20441;-82
2021/07/07 00:11:41;;;;;;;0.50;0.37;;;15.20;99.90;;;;;;5036868;28;20475;-82
2021/07/07 00:14:08;;;;;;;0.50;0.40;;;15.20;99.90;;;;;;5037546;28;20457;-83
2021/07/07 00:16:35;;;;;;;0.50;0.40;;;15.20;99.90;;;;;;5035731;28;20451;-82
2021/07/07 00:19:01;;;;;;;0.50;0.40;;;15.20;99.90;;;;;;5036422;28;20442;-84
2021/07/07 00:21:28;;;;;;;0.50;0.40;;;15.20;99.90;;;;;;5037441;28;20460;-84
2021/07/07 00:23:56;;;;;;;0.50;0.40;;;15.10;99.90;;;;;;5036561;28;20464;-82
2021/07/07 00:26:23;;;;;;;0.50;0.40;;;15.10;99.90;;;;;;5037204;28;20444;-82
2021/07/07 00:28:50;;;;;;;0.50;0.40;;;15.10;99.90;;;;;;5037346;28;20959;-82
2021/07/07 00:31:17;;;;;;;0.50;0.40;;;15.10;99.90;;;;;;5029813;28;20519;-83
2021/07/07 00:33:43;;;;;;;0.50;0.40;;;15.10;99.90;;;;;;5028349;28;20445;-83
2021/07/07 00:36:10;;;;;;;0.50;0.40;;;15.10;99.90;;;;;;5036115;28;20448;-79
2021/07/07 00:38:37;;;;;;;0.50;0.40;;;15.00;99.90;;;;;;5034248;28;20440;-84
2021/07/07 00:41:05;;;;;;;0.50;0.40;;;15.00;99.90;;;;;;5034298;28;20454;-82
2021/07/07 00:43:32;;;;;;;0.50;0.40;;;14.90;99.90;;;;;;5033842;28;20442;-82
2021/07/07 00:45:59;;;;;;;0.50;0.40;;;14.90;99.90;;;;;;5033944;28;20440;-84
2021/07/07 00:48:26;;;;;;;0.50;0.30;;;14.80;99.90;;;;;;5034036;28;20444;-82
2021/07/07 00:50:53;;;;;;;0.50;0.40;;;14.90;99.90;;;;;;5034061;28;20223;-82
2021/07/07 00:53:20;;;;;;;0.53;0.50;;;14.90;99.90;;;;;;5034072;28;20443;-83
2021/07/07 00:55:46;;;;;;;0.50;0.40;;;14.90;99.90;;;;;;5033854;28;20443;-83
2021/07/07 00:58:17;;;;;;;0.50;0.40;;;14.80;99.90;;;;;;5034174;28;20461;-82
2021/07/07 01:00:43;;;;;;;0.50;0.40;;;14.70;99.90;;;;;;5029360;28;20463;-83
2021/07/07 01:03:10;;;;;;;0.50;0.40;;;14.70;99.90;;;;;;5023954;28;20441;-82
2021/07/07 01:05:37;;;;;;;0.50;0.40;;;14.60;99.90;;;;;;5034461;28;20465;-84
2021/07/07 01:08:04;;;;;;;0.50;0.40;;;14.60;99.90;;;;;;5033850;28;20480;-83
2021/07/07 01:10:30;;;;;;;0.50;0.40;;;14.60;99.90;;;;;;5034134;28;20458;-83
2021/07/07 01:12:57;;;;;;;0.50;0.50;;;14.50;99.90;;;;;;5034522;28;20222;-83
2021/07/07 01:15:25;;;;;;;0.50;0.40;;;14.50;99.90;;;;;;5034014;28;20474;-82
2021/07/07 01:17:52;;;;;;;0.50;0.40;;;14.60;99.90;;;;;;5034860;28;20445;-83
2021/07/07 01:20:21;;;;;;;0.50;0.40;;;14.50;99.90;;;;;;5033190;28;20456;-83
2021/07/07 01:22:49;;;;;;;0.50;0.40;;;14.50;99.90;;;;;;5033842;28;20922;-82
2021/07/07 01:25:18;;;;;;;0.50;0.40;;;14.50;99.90;;;;;;5034344;28;20992;-84
2021/07/07 01:27:45;;;;;;;0.50;0.40;;;14.50;99.90;;;;;;5034103;28;20447;-83
2021/07/07 01:30:14;;;;;;;0.50;0.40;;;14.40;99.90;;;;;;5035589;28;20818;-83
2021/07/07 01:32:41;;;;;;;0.50;0.40;;;14.40;99.90;;;;;;5026199;28;20468;-83
2021/07/07 01:35:10;;;;;;;0.50;0.40;;;14.40;99.90;;;;;;5035474;28;20199;-82
2021/07/07 01:37:37;;;;;;;0.50;0.40;;;14.50;99.90;;;;;;5037103;28;20451;-81
2021/07/07 01:40:06;;;;;;;0.50;0.40;;;14.40;99.90;;;;;;5037903;28;20950;-82
2021/07/07 01:42:32;;;;;;;0.50;0.40;;;14.40;99.90;;;;;;5038045;28;20454;-82
2021/07/07 01:44:59;;;;;;;0.50;0.40;;;14.40;99.90;;;;;;5037657;28;20195;-83
2021/07/07 01:47:26;;;;;;;0.80;0.73;;;14.40;99.90;;;;;;5036580;28;20442;-82
2021/07/07 01:49:53;;;;;;;0.50;0.40;;;14.40;99.90;;;;;;5037748;28;20441;-81
2021/07/07 01:52:19;;;;;;;0.50;0.40;;;14.40;99.90;;;;;;5037319;28;20490;-83
2021/07/07 01:54:46;;;;;;;0.50;0.40;;;14.30;99.90;;;;;;5037234;28;20535;-83
2021/07/07 01:57:14;;;;;;;0.50;0.40;;;14.30;99.90;;;;;;5037513;28;20444;-82
2021/07/07 01:59:41;;;;;;;0.50;0.35;;;14.30;99.90;;;;;;5037460;28;20441;-82
2021/07/07 02:02:08;;;;;;;0.50;0.40;;;14.30;99.90;;;;;;5029693;28;20232;-83
2021/07/07 02:04:34;;;;;;;0.50;0.40;;;14.30;99.90;;;;;;5029491;28;20445;-84
2021/07/07 02:07:01;;;;;;;0.50;0.50;;;14.30;99.90;;;;;;5037239;28;20796;-83
2021/07/07 02:09:28;;;;;;;0.50;0.40;;;14.30;99.90;;;;;;5037481;28;20196;-82
2021/07/07 02:11:55;;;;;;;0.50;0.40;;;14.20;99.90;;;;;;5037108;28;20217;-83
2021/07/07 02:14:23;;;;;;;0.50;0.40;;;14.20;99.90;;;;;;5037274;28;20567;-82
2021/07/07 02:16:49;;;;;;;0.50;0.40;;;14.10;99.90;;;;;;5036618;28;20450;-83
2021/07/07 02:19:16;;;;;;;0.50;0.40;;;14.10;99.90;;;;;;5036640;28;20197;-82
2021/07/07 02:21:43;;;;;;;0.50;0.40;;;14.10;99.90;;;;;;5036523;28;20459;-82
2021/07/07 02:24:10;;;;;;;0.50;0.40;;;14.10;99.90;;;;;;5036764;28;20200;-80
2021/07/07 02:26:37;;;;;;;0.50;0.40;;;14.20;99.90;;;;;;5036409;28;20442;-83
2021/07/07 02:29:04;;;;;;;0.50;0.40;;;14.20;99.90;;;;;;5036413;28;20444;-81
2021/07/07 02:31:32;;;;;;;0.50;0.50;;;14.20;99.90;;;;;;5029185;28;20221;-83
2021/07/07 02:33:59;;;;;;;0.50;0.40;;;14.20;99.90;;;;;;5028155;28;20220;-82
2021/07/07 02:36:26;;;;;;;0.50;0.40;;;14.20;99.90;;;;;;5036620;28;20204;-81
2021/07/07 02:38:53;;;;;;;0.50;0.40;;;14.10;99.90;;;;;;5037017;28;20202;-82
2021/07/07 02:41:19;;;;;;;0.50;0.40;;;14.10;99.90;;;;;;5035816;28;20229;-82
2021/07/07 02:43:46;;;;;;;0.50;0.40;;;14.10;99.90;;;;;;5036148;28;20455;-83
2021/07/07 02:46:13;;;;;;;0.50;0.40;;;14.10;99.90;;;;;;5036416;28;20848;-82
2021/07/07 02:48:41;;;;;;;0.50;0.40;;;14.10;99.90;;;;;;5035425;28;20517;-82
2021/07/07 02:51:08;;;;;;;1.17;1.07;;;14.10;99.90;;;;;;5036015;28;20225;-83
2021/07/07 02:53:35;;;;;;;0.50;0.40;;;14.10;99.90;;;;;;5036184;28;20858;-82
2021/07/07 02:56:01;;;;;;;0.50;0.40;;;14.10;99.90;;;;;;5036369;28;20438;-82
2021/07/07 02:58:28;;;;;;;0.50;0.40;;;14.20;99.90;;;;;;5036521;28;20439;-82
2021/07/07 03:00:55;;;;;;;0.50;0.40;;;14.20;99.90;;;;;;5029928;28;20835;-83
2021/07/07 03:03:23;;;;;;;0.50;0.40;;;14.10;99.90;;;;;;5026834;28;20435;-83
2021/07/07 03:05:54;;;;;;;0.50;0.40;;;14.10;99.90;;;;;;5036469;28;20202;-83
2021/07/07 03:08:22;;;;;;;0.50;0.40;;;14.10;99.90;;;;;;5037594;28;20455;-84
2021/07/07 03:10:49;;;;;;;0.50;0.40;;;14.20;99.90;;;;;;5037588;28;20833;-83
2021/07/07 03:13:18;;;;;;;0.60;0.60;;;14.30;99.90;;;;;;5038331;28;20490;-84
2021/07/07 03:15:44;;;;;;;0.50;0.40;;;14.30;99.90;;;;;;5037102;28;21034;-83
2021/07/07 03:18:12;;;;;;;0.50;0.40;;;14.40;99.90;;;;;;5036272;28;21064;-83
2021/07/07 03:20:41;;;;;;;0.50;0.40;;;14.40;99.90;;;;;;5037651;28;20464;-84
2021/07/07 03:23:10;;;;;;;0.50;0.40;;;14.40;99.90;;;;;;5038033;28;20791;-83
2021/07/07 03:25:37;;;;;;;0.50;0.40;;;14.40;99.90;;;;;;5037512;28;20445;-84
2021/07/07 03:28:04;;;;;;;0.50;0.40;;;14.30;99.90;;;;;;5037489;28;20441;-81
2021/07/07 03:30:32;;;;;;;0.50;0.40;;;14.30;99.90;;;;;;5034745;28;20242;-83
2021/07/07 03:32:59;;;;;;;0.50;0.40;;;14.30;99.90;;;;;;5025816;28;20469;-83
2021/07/07 03:35:27;;;;;;;0.50;0.40;;;14.30;99.90;;;;;;5036844;28;20465;-85
2021/07/07 03:37:53;;;;;;;0.50;0.40;;;14.30;99.90;;;;;;5036985;28;20446;-84
2021/07/07 03:40:22;;;;;;;0.50;0.40;;;14.30;99.90;;;;;;5037481;28;20486;-83
2021/07/07 03:42:49;;;;;;;0.50;0.38;;;14.40;99.90;;;;;;5037516;28;20519;-85
2021/07/07 03:45:17;;;;;;;0.50;0.40;;;14.40;99.90;;;;;;5037693;28;20203;-83
2021/07/07 03:47:45;;;;;;;0.50;0.40;;;14.40;99.90;;;;;;5037277;28;20435;-84
2021/07/07 03:50:13;;;;;;;0.50;0.40;;;14.40;99.90;;;;;;5036621;28;20447;-85
2021/07/07 03:52:40;;;;;;;0.50;0.40;;;14.40;99.90;;;;;;5035803;28;20484;-84
2021/07/07 03:55:07;;;;;;;0.50;0.40;;;14.50;99.90;;;;;;5036406;28;20434;-81
2021/07/07 03:57:36;;;;;;;0.50;0.40;;;14.60;99.90;;;;;;5036027;28;20445;-84
2021/07/07 04:00:03;;;;;;;0.50;0.50;;;14.60;99.90;;;;;;5037408;28;20444;-84
2021/07/07 04:02:30;;;;;;;0.50;0.40;;;14.50;99.90;;;;;;5025347;28;20923;-83
2021/07/07 04:04:57;;;;;;;0.50;0.37;;;14.60;99.90;;;;;;5032613;28;20801;-84
2021/07/07 04:07:23;;;;;;;0.50;0.40;;;14.60;99.90;;;;;;5036773;28;20449;-84
2021/07/07 04:09:50;;;;;;;0.50;0.40;;;14.70;99.90;;;;;;5036388;28;20443;-84
2021/07/07 04:12:18;;;;;;;0.50;0.40;;;14.70;99.90;;;;;;5036251;28;21020;-83
2021/07/07 04:14:46;;;;;;;0.50;0.40;;;14.80;99.90;;;;;;5036563;28;20442;-83
2021/07/07 04:17:12;;;;;;;0.50;0.40;;;14.90;99.90;;;;;;5036100;28;20453;-83
2021/07/07 04:19:39;;;;;;;0.50;0.40;;;14.90;99.90;;;;;;5036436;28;20833;-85
2021/07/07 04:22:06;;;;;;;0.50;0.40;;;15.00;99.90;;;;;;5036864;28;20464;-85
2021/07/07 04:24:33;;;;;;;0.50;0.40;;;15.10;99.90;;;;;;5037088;28;20445;-84
2021/07/07 04:26:59;;;;;;;0.50;0.37;;;15.10;99.90;;;;;;5036276;28;20478;-83
2021/07/07 04:29:26;;;;;;;0.50;0.40;;;15.20;99.90;;;;;;5036614;28;20445;-85
2021/07/07 04:31:57;;;;;;;0.50;0.40;;;15.30;99.90;;;;;;5028598;28;20469;-84
2021/07/07 04:34:24;;;;;;;0.50;0.40;;;15.30;99.90;;;;;;5027838;28;20536;-83
2021/07/07 04:36:51;;;;;;;0.50;0.40;;;15.40;99.90;;;;;;5036223;28;20466;-85
2021/07/07 04:39:18;;;;;;;0.50;0.40;;;15.50;99.90;;;;;;5037107;28;20452;-82
2021/07/07 04:41:44;;;;;;;0.50;0.40;;;15.40;99.90;;;;;;5035572;28;20461;-83
2021/07/07 04:44:11;;;;;;;0.50;0.40;;;15.50;99.90;;;;;;5036651;28;20900;-85
2021/07/07 04:46:38;;;;;;;0.50;0.37;;;15.60;99.90;;;;;;5035428;28;20453;-84
2021/07/07 04:49:06;;;;;;;0.50;0.40;;;15.70;99.90;;;;;;5035638;28;20453;-86
2021/07/07 04:51:33;;;;;;;0.70;0.57;;;15.80;99.90;;;;;;4959287;28;20465;-82
2021/07/07 04:54:00;;;;;;;1.80;1.37;;;15.90;99.90;;;;;;4900277;28;20564;-82
2021/07/07 04:56:27;;;;;;;5.80;3.80;;;15.90;99.90;;;;;;5032102;28;20447;-83
2021/07/07 04:58:54;;;;;;;0.60;0.57;;;16.00;99.90;;;;;;5036588;28;20443;-84
2021/07/07 05:01:20;;;;;;;0.50;0.33;;;16.00;99.90;;;;;;5029216;28;20469;-85
2021/07/07 05:03:47;;;;;;;0.50;0.40;;;16.10;99.90;;;;;;5029981;28;20436;-83
2021/07/07 05:06:16;;;;;;;0.50;0.40;;;16.20;99.90;;;;;;5040288;28;20442;-85
2021/07/07 05:08:42;;;;;;;1.10;0.60;;;16.20;99.90;;;;;;5039916;28;20442;-84
2021/07/07 05:11:10;;;;;;;0.50;0.40;;;16.30;99.90;;;;;;5039767;28;20545;-83
2021/07/07 05:13:38;;;;;;;0.50;0.30;;;16.40;99.90;;;;;;5040336;28;20468;-83
2021/07/07 05:16:05;;;;;;;0.60;0.40;;;16.50;99.90;;;;;;5039534;28;20446;-84
2021/07/07 05:18:32;;;;;;;0.50;0.30;;;16.60;99.90;;;;;;5038636;28;20469;-83
2021/07/07 05:20:59;;;;;;;0.73;0.73;;;16.70;99.90;;;;;;5039625;28;20473;-83
2021/07/07 05:23:27;;;;;;;0.50;0.30;;;16.90;99.90;;;;;;5039670;28;20438;-83
2021/07/07 05:25:54;;;;;;;0.50;0.40;;;17.00;99.90;;;;;;5039583;28;20866;-83
2021/07/07 05:28:21;;;;;;;0.50;0.40;;;17.10;99.90;;;;;;5039286;28;20446;-84
2021/07/07 05:30:47;;;;;;;0.50;0.50;;;17.30;99.90;;;;;;5031075;28;21186;-85
2021/07/07 05:33:14;;;;;;;0.50;0.40;;;17.40;99.90;;;;;;5026345;28;20634;-84
2021/07/07 05:35:41;;;;;;;0.50;0.40;;;17.40;99.90;;;;;;5037097;28;20482;-82
2021/07/07 05:38:09;;;;;;;0.50;0.40;;;17.40;99.90;;;;;;5037325;28;20445;-83
2021/07/07 05:40:37;;;;;;;0.50;0.30;;;17.40;99.90;;;;;;5038212;28;20680;-84
2021/07/07 05:43:04;;;;;;;0.50;0.37;;;17.40;99.90;;;;;;5038406;28;20433;-80
2021/07/07 05:45:31;;;;;;;0.73;0.50;;;17.50;99.90;;;;;;5037513;28;20807;-82
2021/07/07 05:47:58;;;;;;;0.50;0.30;;;17.60;99.90;;;;;;5037940;28;20465;-83
2021/07/07 05:50:26;;;;;;;0.50;0.33;;;17.80;99.90;;;;;;5038773;28;20461;-83
2021/07/07 05:52:54;;;;;;;0.50;0.40;;;17.90;99.90;;;;;;5038466;28;20820;-83
2021/07/07 05:55:21;;;;;;;0.50;0.30;;;18.00;99.90;;;;;;5038653;28;20835;-84
2021/07/07 05:57:50;;;;;;;0.50;0.30;;;18.10;99.90;;;;;;5037830;28;20963;-83
2021/07/07 06:00:20;;;;;;;0.50;0.30;;;18.30;99.90;;;;;;5039770;28;20450;-82
2021/07/07 06:02:52;;;;;;;0.50;0.30;;;18.60;99.90;;;;;;5027635;28;20449;-84
2021/07/07 06:05:19;;;;;;;0.50;0.30;;;18.90;99.90;;;;;;5020301;28;20451;-82
2021/07/07 06:07:46;;;;;;;0.50;0.30;;;19.10;99.90;;;;;;5018083;28;20893;-86
2021/07/07 06:10:15;;;;;;;0.50;0.30;;;19.30;99.90;;;;;;5018282;28;20440;-84
2021/07/07 06:12:42;;;;;;;0.60;0.50;;;19.50;99.90;;;;;;5020054;28;20986;-85
2021/07/07 06:15:11;;;;;;;0.50;0.30;;;19.80;99.90;;;;;;5016791;28;20450;-85
2021/07/07 06:17:38;;;;;;;0.50;0.30;;;20.00;99.90;;;;;;5017336;28;20444;-86
2021/07/07 06:20:07;;;;;;;0.50;0.30;;;20.30;99.90;;;;;;5018044;28;20449;-84
2021/07/07 06:22:34;;;;;;;0.50;0.40;;;20.40;99.90;;;;;;5018735;28;20447;-84
2021/07/07 06:25:01;;;;;;;0.50;0.40;;;20.40;99.90;;;;;;5018238;28;20443;-85
2021/07/07 06:27:27;;;;;;;0.50;0.30;;;20.40;99.90;;;;;;5018958;28;20863;-85
2021/07/07 06:29:54;;;;;;;0.50;0.30;;;20.60;99.90;;;;;;5018708;28;20806;-84
2021/07/07 06:32:22;;;;;;;0.50;0.30;;;20.80;99.90;;;;;;5026349;28;20470;-84
2021/07/07 06:34:49;;;;;;;0.50;0.40;;;20.90;99.90;;;;;;5032649;28;20825;-85
2021/07/07 06:37:15;;;;;;;0.60;0.40;;;21.00;99.90;;;;;;5039173;28;20442;-83
2021/07/07 06:39:43;;;;;;;0.50;0.40;;;21.20;99.90;;;;;;5038778;28;20446;-82
2021/07/07 06:42:10;;;;;;;0.50;0.40;;;21.30;99.90;;;;;;5038989;28;20458;-83
2021/07/07 06:44:37;;;;;;;0.50;0.30;;;21.60;99.90;;;;;;5039300;28;20444;-82
2021/07/07 06:47:04;;;;;;;0.83;0.80;;;21.70;99.90;;;;;;5037344;28;20449;-82
2021/07/07 06:49:32;;;;;;;0.50;0.30;;;21.70;99.90;;;;;;5036897;28;20827;-84
2021/07/07 06:51:59;;;;;;;0.50;0.40;;;21.80;99.90;;;;;;5038322;28;20475;-81
2021/07/07 06:54:25;;;;;;;0.50;0.30;;;21.50;99.90;;;;;;5038439;28;20482;-82
2021/07/07 06:56:52;;;;;;;0.50;0.40;;;21.50;99.90;;;;;;5036279;28;20936;-84
2021/07/07 06:59:19;;;;;;;0.50;0.30;;;21.70;99.90;;;;;;5037339;28;20440;-84
2021/07/07 07:01:46;;;;;;;0.50;0.30;;;21.90;99.90;;;;;;5030078;28;20464;-84
2021/07/07 07:04:12;;;;;;;0.50;0.43;;;21.90;99.90;;;;;;5028628;28;20805;-83
2021/07/07 07:06:40;;;;;;;0.50;0.33;;;21.70;99.90;;;;;;5036806;28;20440;-80
2021/07/07 07:09:07;;;;;;;0.50;0.30;;;21.60;99.90;;;;;;5036735;28;20535;-85
2021/07/07 07:11:34;;;;;;;0.50;0.30;;;21.60;99.90;;;;;;5037118;28;20471;-85
2021/07/07 07:14:01;;;;;;;0.50;0.30;;;21.50;99.90;;;;;;5037193;28;21028;-85
2021/07/07 07:16:28;;;;;;;0.50;0.30;;;21.60;99.90;;;;;;5037877;28;20543;-84
2021/07/07 07:18:54;;;;;;;0.50;0.30;;;21.80;99.90;;;;;;5036954;28;20472;-84
2021/07/07 07:21:21;;;;;;;0.50;0.50;;;21.90;99.90;;;;;;5037062;28;20461;-83
2021/07/07 07:23:49;;;;;;;0.50;0.40;;;22.00;99.90;;;;;;5037520;28;20781;-84
2021/07/07 07:26:16;;;;;;;0.50;0.40;;;22.00;99.90;;;;;;5036854;28;20442;-84
2021/07/07 07:28:44;;;;;;;0.50;0.40;;;22.50;99.90;;;;;;5038198;28;20857;-82
2021/07/07 07:31:11;;;;;;;0.50;0.30;;;22.80;99.90;;;;;;5031263;28;20482;-81
2021/07/07 07:33:38;;;;;;;0.50;0.40;;;23.30;99.90;;;;;;5029764;28;20477;-83
2021/07/07 07:36:05;;;;;;;0.50;0.30;;;24.10;99.90;;;;;;5038462;28;20443;-82
2021/07/07 07:38:38;;;;;;;0.50;0.30;;;26.10;99.90;;;;;;5037403;28;20506;-81
2021/07/07 07:41:06;;;;;;;0.70;0.57;;;27.70;99.90;;;;;;5038477;28;20463;-81
2021/07/07 07:43:33;;;;;;;0.50;0.30;;;28.90;97.30;;;;;;5038320;28;20437;-82
2021/07/07 07:46:00;;;;;;;0.50;0.30;;;29.50;92.10;;;;;;5038278;28;20444;-81
2021/07/07 07:48:28;;;;;;;0.50;0.30;;;29.80;91.00;;;;;;5037733;28;20446;-83
2021/07/07 07:50:55;;;;;;;0.50;0.30;;;30.10;83.80;;;;;;5037561;28;20461;-84
2021/07/07 07:53:23;;;;;;;0.67;0.60;;;30.80;81.20;;;;;;5037437;28;20478;-83
2021/07/07 07:55:50;;;;;;;0.50;0.30;;;31.80;73.60;;;;;;5037036;28;20437;-84
2021/07/07 07:58:19;;;;;;;0.80;0.80;;;32.20;71.70;;;;;;5037008;28;20444;-84
2021/07/07 08:00:46;;;;;;;1.40;0.63;;;33.00;70.80;;;;;;5033151;28;20470;-83
2021/07/07 08:03:13;;;;;;;0.50;0.30;;;33.50;67.20;;;;;;5026396;28;20450;-84
2021/07/07 08:05:40;;;;;;;0.50;0.30;;;33.60;66.10;;;;;;5037614;28;20446;-83
2021/07/07 08:08:08;;;;;;;0.60;0.50;;;33.20;65.20;;;;;;5037931;28;20447;-86
2021/07/07 08:10:35;;;;;;;1.07;0.87;;;32.80;66.30;;;;;;5036804;28;20459;-84
2021/07/07 08:13:02;;;;;;;0.50;0.40;;;32.30;65.50;;;;;;5037577;28;20826;-84
2021/07/07 08:15:30;;;;;;;0.50;0.40;;;31.90;64.00;;;;;;5035925;28;20454;-84
2021/07/07 08:17:59;;;;;;;0.50;0.40;;;31.60;67.00;;;;;;5037505;28;20945;-84
2021/07/07 08:20:26;;;;;;;0.47;0.30;;;32.70;68.10;;;;;;5036633;28;21000;-79
2021/07/07 08:22:54;;;;;;;0.40;0.30;;;34.20;64.10;;;;;;5037507;28;20928;-82
2021/07/07 08:25:21;;;;;;;0.50;0.30;;;35.20;59.70;;;;;;5037695;28;20499;-83
2021/07/07 08:27:48;;;;;;;0.40;0.30;;;35.40;59.60;;;;;;5038209;28;20439;-81
2021/07/07 08:30:16;;;;;;;0.50;0.40;;;35.20;57.70;;;;;;5036713;28;20943;-81
2021/07/07 08:32:44;;;;;;;0.83;0.83;;;34.80;56.30;;;;;;5025239;28;21118;-79
2021/07/07 08:35:11;;;;;;;0.50;0.40;;;34.50;58.70;;;;;;5035658;28;20471;-79
2021/07/07 08:37:40;;;;;;;0.50;0.30;;;33.70;58.90;;;;;;5037064;28;20432;-82
2021/07/07 08:40:09;;;;;;;0.47;0.30;;;33.40;60.80;;;;;;5036736;28;20434;-82
2021/07/07 08:42:37;;;;;;;0.40;0.30;;;33.60;59.30;;;;;;5036636;28;20442;-82
2021/07/07 08:45:07;;;;;;;0.50;0.30;;;33.90;59.50;;;;;;5036539;28;20447;-82
2021/07/07 08:47:34;;;;;;;0.60;0.50;;;34.90;58.60;;;;;;5026117;28;20498;-82
2021/07/07 08:50:04;;;;;;;0.40;0.30;;;35.30;56.80;;;;;;5033930;28;20435;-81
2021/07/07 08:52:31;;;;;;;0.40;0.30;;;34.10;57.20;;;;;;5037275;28;20445;-83
2021/07/07 08:54:58;;;;;;;0.40;0.30;;;34.60;58.00;;;;;;5037228;28;20478;-84
2021/07/07 08:57:24;;;;;;;2.83;2.63;;;34.90;56.20;;;;;;5036801;28;20453;-83
2021/07/07 08:59:51;;;;;;;0.40;0.30;;;35.40;55.40;;;;;;5038203;28;20446;-83
2021/07/07 09:02:18;;;;;;;1.17;0.67;;;36.10;55.00;;;;;;5037160;28;20468;-82
2021/07/07 09:04:46;;;;;;;0.60;0.40;;;36.00;56.10;;;;;;5037821;28;20950;-82
2021/07/07 09:07:17;;;;;;;0.50;0.40;;;35.10;55.00;;;;;;5036914;28;20455;-78
2021/07/07 09:09:45;;;;;;;0.40;0.30;;;34.80;57.90;;;;;;5036641;28;20434;-83
2021/07/07 09:12:17;;;;;;;0.40;0.30;;;35.70;56.50;;;;;;5037767;28;20465;-84
2021/07/07 09:14:45;;;;;;;0.40;0.30;;;35.70;55.50;;;;;;5037829;28;20492;-83
2021/07/07 09:17:13;;;;;;;0.40;0.30;;;36.40;54.50;;;;;;5030011;28;20457;-80
2021/07/07 09:19:40;;;;;;;0.40;0.30;;;36.30;56.50;;;;;;5030199;28;20986;-85
2021/07/07 09:22:08;;;;;;;0.40;0.30;;;36.50;53.80;;;;;;5036721;28;20455;-83
2021/07/07 09:24:38;;;;;;;0.83;0.50;;;35.70;54.20;;;;;;5036891;28;20435;-83
2021/07/07 09:27:07;;;;;;;0.40;0.30;;;35.80;53.70;;;;;;5036503;28;20445;-83
2021/07/07 09:29:36;;;;;;;0.50;0.40;;;35.60;55.70;;;;;;5037257;28;20443;-82
2021/07/07 09:32:15;;;;;;;0.40;0.30;;;35.10;53.50;;;;;;5037583;28;20483;-82
2021/07/07 09:34:44;;;;;;;0.63;0.63;;;36.10;53.00;;;;;;5037363;28;20483;-84
2021/07/07 09:37:19;;;;;;;0.40;0.30;;;37.30;52.50;;;;;;5036753;28;20444;-81
2021/07/07 09:39:47;;;;;;;0.40;0.30;;;37.10;51.20;;;;;;5037633;28;20435;-80
2021/07/07 09:42:14;;;;;;;0.40;0.40;;;35.80;51.80;;;;;;5036563;28;20475;-84
2021/07/07 09:44:41;;;;;;;0.50;0.33;;;34.70;52.30;;;;;;5037720;28;21100;-83
2021/07/07 11:11:28;;;;;;;1.70;1.63;;;29.60;90.10;;;;;;5136640;27;20601;-83
2021/07/07 11:13:55;;;;;;;0.50;0.40;;;30.40;80.90;;;;;;5117069;28;20436;-83
2021/07/07 11:16:23;;;;;;;0.50;0.40;;;32.20;72.00;;;;;;5110869;28;20497;-82
2021/07/07 11:18:50;;;;;;;0.50;0.40;;;33.00;64.30;;;;;;5115324;28;20441;-83
2021/07/07 11:21:18;;;;;;;0.50;0.40;;;31.70;63.10;;;;;;5116104;28;20461;-83
2021/07/07 11:23:46;;;;;;;0.50;0.30;;;30.40;68.90;;;;;;5116024;28;20923;-83
2021/07/07 11:26:14;;;;;;;0.60;0.50;;;30.60;68.00;;;;;;5117002;28;20455;-79
2021/07/07 11:28:42;;;;;;;0.50;0.30;;;29.50;64.20;;;;;;5115875;28;20443;-83
2021/07/07 11:31:10;;;;;;;0.50;0.30;;;28.40;67.30;;;;;;5115338;28;20477;-83
2021/07/07 11:33:37;;;;;;;0.50;0.30;;;29.60;73.60;;;;;;5115644;28;20442;-83
2021/07/07 11:36:05;;;;;;;0.50;0.43;;;30.40;64.80;;;;;;5115927;28;20443;-83
2021/07/07 11:38:32;;;;;;;0.50;0.40;;;31.40;62.20;;;;;;5115060;28;20448;-81
2021/07/07 11:41:00;;;;;;;0.50;0.30;;;31.50;60.50;;;;;;5114315;28;20548;-82
2021/07/07 11:43:28;;;;;;;0.67;0.47;;;30.20;60.80;;;;;;5113547;28;20527;-82
2021/07/07 11:45:59;;;;;;;0.50;0.40;;;29.50;61.90;;;;;;5110224;28;20444;-82
2021/07/07 11:48:29;;;;;;;1.23;0.60;;;28.70;64.20;;;;;;5112049;28;20431;-83
2021/07/07 11:50:59;;;;;;;0.87;0.87;;;27.50;66.50;;;;;;5121635;28;20484;-85
2021/07/07 11:53:35;;;;;;;0.50;0.50;;;27.80;69.40;;;;;;5120397;28;20446;-82
2021/07/07 11:56:04;;;;;;;0.50;0.40;;;27.60;68.10;;;;;;5114820;28;20426;-83
2021/07/07 11:58:43;;;;;;;0.50;0.33;;;27.40;68.70;;;;;;5114694;28;20469;-82
2021/07/07 12:01:17;;;;;;;0.50;0.40;;;27.50;70.40;;;;;;5115172;28;20459;-84
2021/07/07 12:03:52;;;;;;;0.77;0.77;;;28.30;67.40;;;;;;5115054;28;20936;-82
2021/07/07 12:06:28;;;;;;;0.50;0.30;;;28.60;67.60;;;;;;5114692;28;20453;-82
2021/07/07 12:08:55;;;;;;;0.50;0.30;;;28.50;67.10;;;;;;5115109;28;20436;-85
2021/07/07 12:11:23;;;;;;;0.90;0.50;;;28.90;68.80;;;;;;5114067;28;20496;-82
2021/07/07 12:13:51;;;;;;;0.50;0.30;;;28.30;66.00;;;;;;5115120;28;20446;-83
2021/07/07 12:16:25;;;;;;;4.30;0.70;;;28.50;69.20;;;;;;5109085;28;20519;-82
2021/07/07 12:18:53;;;;;;;0.50;0.50;;;28.70;68.20;;;;;;5114584;28;20420;-83
2021/07/07 12:21:38;;;;;;;0.50;0.37;;;28.00;66.60;;;;;;5108532;28;20796;-81
2021/07/07 12:24:08;;;;;;;0.60;0.50;;;28.10;68.90;;;;;;5100100;28;20878;-81
2021/07/07 12:26:38;;;;;;;0.50;0.40;;;28.00;67.30;;;;;;5101101;28;20442;-83
2021/07/07 12:29:06;;;;;;;0.60;0.50;;;27.30;69.60;;;;;;5100490;28;20444;-83
2021/07/07 12:31:38;;;;;;;0.50;0.30;;;26.70;69.30;;;;;;5100229;28;20879;-81
2021/07/07 12:34:07;;;;;;;0.90;0.57;;;26.40;72.00;;;;;;5100281;28;21133;-82
2021/07/07 12:36:36;;;;;;;0.77;0.50;;;26.30;70.90;;;;;;5091538;22;20488;-78
2021/07/07 12:39:12;;;;;;;0.50;0.30;;;26.80;72.20;;;;;;5054656;28;20441;-78
2021/07/07 12:41:41;;;;;;;0.50;0.30;;;27.50;72.20;;;;;;5051033;28;20433;-78
2021/07/07 12:44:11;;;;;;;0.50;0.30;;;28.00;70.40;;;;;;5057018;28;20446;-78
2021/07/07 12:46:50;;;;;;;0.50;0.40;;;29.40;67.60;;;;;;5056808;28;20470;-76
2021/07/07 12:49:22;;;;;;;0.50;0.30;;;30.10;63.80;;;;;;5058444;28;20802;-78
2021/07/07 12:51:49;;;;;;;0.50;0.30;;;30.00;63.40;;;;;;5058410;28;20545;-77
2021/07/07 12:54:19;;;;;;;0.50;0.30;;;28.80;64.30;;;;;;5059500;28;20441;-77
2021/07/07 12:57:03;;;;;;;0.50;0.30;;;28.00;66.50;;;;;;5056287;28;20460;-78
2021/07/07 12:59:30;;;;;;;0.60;0.43;;;27.50;69.20;;;;;;5056374;28;20778;-76
2021/07/07 13:02:33;;;;;;;0.50;0.30;;;26.90;69.50;;;;;;5056837;28;20450;-78
2021/07/07 13:05:13;;;;;;;0.50;0.30;;;26.30;71.80;;;;;;4994954;28;20439;-77
2021/07/07 13:07:40;;;;;;;1.23;0.50;;;26.20;74.50;;;;;;4989599;28;20461;-77
2021/07/07 13:10:07;;;;;;;0.50;0.40;;;25.70;74.60;;;;;;4992504;28;20996;-77
2021/07/07 13:12:33;;;;;;;1.53;1.07;;;26.10;76.40;;;;;;4996084;28;20425;-77
2021/07/07 13:15:00;;;;;;;0.50;0.30;;;26.30;74.80;;;;;;4995192;28;20448;-78
2021/07/07 13:17:27;;;;;;;0.50;0.30;;;27.20;75.30;;;;;;4994620;28;20464;-77
2021/07/07 13:20:01;;;;;;;2.70;0.70;;;27.70;72.30;;;;;;4996015;28;20450;-76
2021/07/07 13:22:29;;;;;;;2.50;0.60;;;27.70;71.60;;;;;;4995312;28;20440;-78
2021/07/07 13:24:56;;;;;;;0.50;0.50;;;27.90;70.50;;;;;;4995005;28;20454;-78
2021/07/07 13:27:23;;;;;;;0.50;0.30;;;27.80;69.70;;;;;;4995240;28;20515;-77
2021/07/07 13:29:58;;;;;;;0.60;0.60;;;27.40;70.50;;;;;;4994273;28;20480;-79
2021/07/07 13:32:26;;;;;;;0.50;0.30;;;27.40;73.30;;;;;;4994684;28;20498;-76
2021/07/07 13:34:55;;;;;;;0.50;0.30;;;27.60;74.40;;;;;;4995383;28;20526;-78
2021/07/07 13:37:29;;;;;;;0.50;0.30;;;28.70;71.80;;;;;;4991293;28;20476;-77
2021/07/07 13:39:59;;;;;;;0.50;0.30;;;28.80;69.60;;;;;;4990535;28;20526;-78
2021/07/07 13:42:27;;;;;;;0.50;0.40;;;28.70;68.00;;;;;;5031428;28;20444;-78
2021/07/07 13:44:55;;;;;;;0.50;0.40;;;28.40;68.60;;;;;;5059306;28;20434;-77
2021/07/07 13:47:23;;;;;;;0.50;0.30;;;28.00;70.70;;;;;;5057455;28;20454;-78
2021/07/07 13:49:51;;;;;;;2.60;0.70;;;28.00;70.80;;;;;;5059705;28;20495;-78
2021/07/07 13:52:18;;;;;;;0.50;0.30;;;27.70;69.20;;;;;;5060804;28;20439;-78
2021/07/07 13:54:46;;;;;;;0.60;0.60;;;27.20;73.10;;;;;;5059541;28;20429;-78
2021/07/07 13:57:14;;;;;;;0.50;0.30;;;26.60;74.20;;;;;;5058446;28;20460;-78
2021/07/07 13:59:42;;;;;;;0.50;0.30;;;26.20;77.80;;;;;;5059228;28;20441;-79
2021/07/07 14:02:09;;;;;;;0.50;0.30;;;25.70;79.70;;;;;;5058467;28;20823;-78
2021/07/07 14:04:37;;;;;;;0.50;0.40;;;25.50;84.30;;;;;;5062641;28;20430;-79
2021/07/07 14:07:04;;;;;;;0.70;0.60;;;25.30;85.40;;;;;;5057373;28;20552;-77
2021/07/07 14:09:31;;;;;;;0.50;0.30;;;25.20;87.00;;;;;;5058912;28;20441;-78
2021/07/07 14:11:58;;;;;;;0.60;0.40;;;25.50;86.90;;;;;;5058493;28;20487;-79
2021/07/07 14:14:30;;;;;;;0.50;0.40;;;26.60;81.10;;;;;;5058466;28;20475;-78
2021/07/07 14:16:58;;;;;;;0.60;0.47;;;28.00;75.70;;;;;;5058868;28;20454;-79